Time;durP1;ratioP1;P1;durP2;ratioP2;P2;SDS_P1;SDS_P2;PMS_P1;PMS_P2;Temp;Humidity;BMP_temperature;BMP_pressure;BME280_temperature;BME280_humidity;BME280_pressure;Samples;Min_cycle;Max_cycle;Signal;HPM_P1;HPM_P2
2022/07/24 00:01:35;;;;;;;5.90;5.22;;;15.70;99.90;;;;;;5000776;28;20041;-91
2022/07/24 00:04:04;;;;;;;6.15;5.13;;;15.70;99.90;;;;;;5004464;28;20040;-92
2022/07/24 00:06:30;;;;;;;7.30;5.63;;;15.60;99.90;;;;;;5021406;28;20042;-92
2022/07/24 00:08:56;;;;;;;6.57;5.15;;;15.60;99.90;;;;;;5022695;28;20365;-92
2022/07/24 00:11:22;;;;;;;6.03;5.43;;;15.60;99.90;;;;;;5018096;28;20060;-91
2022/07/24 00:13:47;;;;;;;8.52;5.45;;;15.60;99.90;;;;;;5011433;28;20486;-93
2022/07/24 00:16:13;;;;;;;5.80;5.03;;;15.70;99.90;;;;;;5002411;28;20542;-92
2022/07/24 00:18:39;;;;;;;7.97;4.95;;;15.70;99.90;;;;;;5018961;28;20060;-91
2022/07/24 00:21:05;;;;;;;6.05;4.63;;;15.70;99.90;;;;;;5003822;28;20037;-92
2022/07/24 00:23:31;;;;;;;6.13;5.28;;;15.70;99.90;;;;;;5008008;28;20045;-92
2022/07/24 00:25:57;;;;;;;5.55;5.05;;;15.70;99.90;;;;;;4999804;28;20053;-92
2022/07/24 00:28:23;;;;;;;5.97;5.00;;;15.70;99.90;;;;;;5021634;28;20037;-91
2022/07/24 00:30:49;;;;;;;6.03;5.15;;;15.60;99.90;;;;;;4983684;28;20033;-92
2022/07/24 00:33:14;;;;;;;7.30;5.38;;;15.70;99.90;;;;;;4987306;28;20041;-92
2022/07/24 00:35:40;;;;;;;6.10;5.50;;;15.60;99.90;;;;;;5018971;28;20065;-91
2022/07/24 00:38:06;;;;;;;6.72;5.45;;;15.60;99.90;;;;;;5016303;28;20046;-92
2022/07/24 00:40:32;;;;;;;8.85;5.53;;;15.60;99.90;;;;;;5001898;28;20044;-91
2022/07/24 00:42:58;;;;;;;7.85;5.90;;;15.60;99.90;;;;;;5004780;28;20037;-92
2022/07/24 00:45:24;;;;;;;8.05;5.60;;;15.50;99.90;;;;;;5019814;28;20480;-92
2022/07/24 00:47:51;;;;;;;6.45;5.32;;;15.40;99.90;;;;;;5004140;28;20029;-92
2022/07/24 00:50:17;;;;;;;9.50;5.07;;;15.40;99.90;;;;;;5022044;28;20034;-91
2022/07/24 00:52:44;;;;;;;7.13;5.85;;;15.40;99.90;;;;;;5019510;28;20052;-92
2022/07/24 00:55:10;;;;;;;5.82;4.88;;;15.40;99.90;;;;;;5017840;28;20526;-91
2022/07/24 00:57:36;;;;;;;6.85;4.88;;;15.40;99.90;;;;;;5017301;28;20042;-92
2022/07/24 01:00:06;;;;;;;6.53;5.63;;;15.40;99.90;;;;;;4985519;28;20044;-91
2022/07/24 01:02:32;;;;;;;5.88;5.15;;;15.30;99.90;;;;;;5017006;28;20128;-92
2022/07/24 01:04:58;;;;;;;5.97;5.13;;;15.30;99.90;;;;;;5004018;28;20121;-91
2022/07/24 01:07:23;;;;;;;7.25;6.05;;;15.30;99.90;;;;;;4982651;28;20038;-92
2022/07/24 01:09:50;;;;;;;6.40;5.38;;;15.30;99.90;;;;;;5022705;28;20037;-93
2022/07/24 01:12:17;;;;;;;6.57;4.75;;;15.30;99.90;;;;;;5017826;28;20069;-91
2022/07/24 01:14:43;;;;;;;6.80;5.22;;;15.20;99.90;;;;;;4999965;28;20045;-91
2022/07/24 01:17:09;;;;;;;6.05;5.15;;;15.20;99.90;;;;;;5004492;28;20044;-92
2022/07/24 01:19:35;;;;;;;6.55;5.55;;;15.20;99.90;;;;;;5024249;28;20042;-91
2022/07/24 01:22:01;;;;;;;6.47;5.30;;;15.10;99.90;;;;;;5000362;28;20053;-91
2022/07/24 01:24:26;;;;;;;8.80;4.90;;;15.10;99.90;;;;;;5000598;28;20052;-92
2022/07/24 01:26:52;;;;;;;7.15;5.35;;;15.10;99.90;;;;;;5022132;28;20053;-92
2022/07/24 01:29:18;;;;;;;5.70;4.97;;;15.10;99.90;;;;;;5025911;28;20036;-91
2022/07/24 01:31:43;;;;;;;5.93;5.32;;;15.20;99.90;;;;;;5005212;28;20497;-92
2022/07/24 01:34:09;;;;;;;7.05;5.45;;;15.20;99.90;;;;;;5023940;28;20056;-91
2022/07/24 01:36:35;;;;;;;10.23;5.35;;;15.20;99.90;;;;;;5010200;28;21388;-91
2022/07/24 01:39:01;;;;;;;7.40;5.45;;;15.20;99.90;;;;;;5005539;28;20121;-92
2022/07/24 01:41:27;;;;;;;6.00;5.40;;;15.20;99.90;;;;;;5005350;28;20175;-91
2022/07/24 01:43:52;;;;;;;6.25;5.28;;;15.20;99.90;;;;;;5023982;28;20065;-91
2022/07/24 01:46:18;;;;;;;5.72;5.07;;;15.20;99.90;;;;;;5010716;28;20036;-92
2022/07/24 01:48:44;;;;;;;9.07;5.32;;;15.20;99.90;;;;;;4988618;28;20547;-92
2022/07/24 01:51:10;;;;;;;11.68;5.88;;;15.20;99.90;;;;;;4991181;28;20449;-91
2022/07/24 01:53:36;;;;;;;9.43;6.13;;;15.20;99.90;;;;;;5008596;28;20041;-91
2022/07/24 01:56:02;;;;;;;7.50;5.28;;;15.20;99.90;;;;;;5025765;28;20388;-92
2022/07/24 01:58:28;;;;;;;6.80;5.60;;;15.20;99.90;;;;;;5008713;28;20105;-92
2022/07/24 02:00:55;;;;;;;8.35;5.60;;;15.20;99.90;;;;;;5020673;28;20175;-92
2022/07/24 02:03:21;;;;;;;6.13;5.25;;;15.10;99.90;;;;;;5025484;28;20041;-92
2022/07/24 02:05:46;;;;;;;6.10;5.25;;;15.20;99.90;;;;;;5007854;28;20059;-91
2022/07/24 02:08:12;;;;;;;5.90;5.03;;;15.10;99.90;;;;;;5024444;28;20518;-92
2022/07/24 02:10:38;;;;;;;6.35;4.85;;;15.10;99.90;;;;;;5001973;28;20525;-90
2022/07/24 02:13:04;;;;;;;6.93;5.57;;;15.00;99.90;;;;;;5025406;28;20094;-92
2022/07/24 02:15:30;;;;;;;7.03;5.28;;;15.00;99.90;;;;;;4986859;28;20045;-92
2022/07/24 02:17:59;;;;;;;12.45;6.07;;;15.00;99.90;;;;;;4998997;28;20398;-91
2022/07/24 02:20:26;;;;;;;8.27;5.65;;;15.00;99.90;;;;;;5024651;28;20124;-92
2022/07/24 02:22:52;;;;;;;6.60;6.00;;;15.00;99.90;;;;;;5023209;28;20041;-92
2022/07/24 02:25:18;;;;;;;7.88;5.78;;;15.00;99.90;;;;;;5026052;28;20072;-91
2022/07/24 02:27:44;;;;;;;6.15;5.55;;;15.00;99.90;;;;;;5026443;28;20597;-93
2022/07/24 02:30:13;;;;;;;7.85;5.82;;;15.00;99.90;;;;;;5023393;28;20091;-92
2022/07/24 02:32:39;;;;;;;7.50;5.72;;;15.00;99.90;;;;;;5029659;28;20033;-92
2022/07/24 02:35:06;;;;;;;7.30;5.38;;;15.00;99.90;;;;;;5023156;28;20496;-92
2022/07/24 02:37:32;;;;;;;8.25;5.63;;;15.00;99.90;;;;;;5012262;28;20037;-91
2022/07/24 02:39:57;;;;;;;6.82;5.30;;;15.00;99.90;;;;;;5025053;28;20045;-92
2022/07/24 02:42:23;;;;;;;6.78;5.78;;;15.00;99.90;;;;;;5003725;28;20558;-92
2022/07/24 02:44:49;;;;;;;7.57;6.05;;;15.00;99.90;;;;;;4992433;28;20041;-92
2022/07/24 02:47:14;;;;;;;8.82;5.45;;;15.00;99.90;;;;;;5012762;28;20033;-91
2022/07/24 02:49:40;;;;;;;8.52;5.78;;;15.00;99.90;;;;;;5011952;28;20478;-91
2022/07/24 02:52:06;;;;;;;5.97;5.32;;;14.90;99.90;;;;;;4996204;28;20037;-92
2022/07/24 02:54:31;;;;;;;8.18;5.82;;;15.00;99.90;;;;;;5022896;28;20128;-92
2022/07/24 02:56:57;;;;;;;8.70;5.60;;;14.90;99.90;;;;;;5029426;28;20041;-92
2022/07/24 02:59:23;;;;;;;6.40;5.80;;;14.90;99.90;;;;;;5024001;28;20138;-92
2022/07/24 03:01:48;;;;;;;6.30;5.57;;;14.90;99.90;;;;;;5010677;28;20383;-91
2022/07/24 03:04:14;;;;;;;8.68;5.88;;;15.00;99.90;;;;;;4989239;28;20091;-92
2022/07/24 03:06:40;;;;;;;7.38;5.63;;;15.00;99.90;;;;;;5009106;28;20036;-91
2022/07/24 03:09:05;;;;;;;6.20;5.57;;;14.90;99.90;;;;;;5014310;28;20103;-91
2022/07/24 03:11:31;;;;;;;7.35;6.05;;;14.90;99.90;;;;;;5011327;28;20057;-91
2022/07/24 03:13:57;;;;;;;6.82;5.22;;;14.90;99.90;;;;;;5010386;28;20559;-91
2022/07/24 03:16:23;;;;;;;7.82;5.93;;;14.90;99.90;;;;;;4995664;28;20037;-91
2022/07/24 03:18:48;;;;;;;6.70;6.00;;;14.90;99.90;;;;;;4993628;28;20038;-91
2022/07/24 03:21:16;;;;;;;7.55;5.88;;;14.90;99.90;;;;;;5013581;28;20040;-92
2022/07/24 03:23:43;;;;;;;10.27;5.75;;;14.90;99.90;;;;;;5010047;28;20079;-91
2022/07/24 03:26:09;;;;;;;6.72;5.35;;;14.90;99.90;;;;;;5021558;28;20045;-92
2022/07/24 03:28:35;;;;;;;7.43;6.10;;;14.80;99.90;;;;;;5006931;28;20037;-91
2022/07/24 03:31:01;;;;;;;7.43;5.88;;;14.80;99.90;;;;;;5008560;28;20210;-91
2022/07/24 03:33:28;;;;;;;6.95;5.60;;;14.80;99.90;;;;;;4991846;28;21082;-91
2022/07/24 03:35:54;;;;;;;10.75;6.43;;;14.80;99.90;;;;;;4998161;28;20097;-91
2022/07/24 03:38:20;;;;;;;7.22;5.43;;;14.80;99.90;;;;;;5005520;28;20051;-91
2022/07/24 03:40:46;;;;;;;7.38;5.22;;;14.80;99.90;;;;;;4997254;28;20038;-90
2022/07/24 03:43:12;;;;;;;6.72;5.65;;;14.80;99.90;;;;;;4996333;28;20070;-92
2022/07/24 03:45:38;;;;;;;6.85;5.70;;;14.80;99.90;;;;;;5010879;28;20034;-92
2022/07/24 03:48:06;;;;;;;7.38;5.63;;;14.80;99.90;;;;;;5012445;28;20088;-92
2022/07/24 03:50:32;;;;;;;9.63;5.95;;;14.80;99.90;;;;;;4996063;28;20100;-92
2022/07/24 03:52:58;;;;;;;8.82;6.20;;;14.90;99.90;;;;;;5007859;28;20037;-92
2022/07/24 03:55:23;;;;;;;6.53;5.88;;;14.90;99.90;;;;;;5002465;28;20049;-92
2022/07/24 03:57:49;;;;;;;7.40;6.50;;;14.90;99.90;;;;;;5003596;28;20042;-91
2022/07/24 04:00:15;;;;;;;7.95;6.03;;;14.90;99.90;;;;;;5000396;28;20042;-92
2022/07/24 04:02:41;;;;;;;7.05;6.00;;;14.90;99.90;;;;;;5003262;28;20045;-91
2022/07/24 04:05:08;;;;;;;7.45;5.95;;;14.90;99.90;;;;;;5000857;28;20079;-91
2022/07/24 04:07:37;;;;;;;8.80;6.63;;;14.90;99.90;;;;;;5025070;28;20042;-91
2022/07/24 04:10:05;;;;;;;6.60;5.90;;;14.90;99.90;;;;;;5019333;28;20056;-91
2022/07/24 04:12:31;;;;;;;8.32;5.60;;;14.90;99.90;;;;;;5018049;28;20042;-92
2022/07/24 04:14:56;;;;;;;6.82;5.70;;;14.90;99.90;;;;;;5016502;28;20041;-92
2022/07/24 04:17:22;;;;;;;7.32;5.68;;;15.00;99.90;;;;;;5008397;28;20072;-91
2022/07/24 04:19:48;;;;;;;7.07;6.00;;;15.00;99.90;;;;;;5004299;28;20041;-91
2022/07/24 04:22:14;;;;;;;7.82;6.05;;;15.00;99.90;;;;;;5008934;28;20033;-91
2022/07/24 04:24:39;;;;;;;6.18;5.43;;;15.10;99.90;;;;;;5022864;28;20171;-91
2022/07/24 04:27:05;;;;;;;6.60;5.82;;;15.10;99.90;;;;;;5023667;28;20054;-91
2022/07/24 04:29:31;;;;;;;6.22;5.63;;;15.20;99.90;;;;;;4992564;28;20421;-92
2022/07/24 04:31:57;;;;;;;8.00;5.90;;;15.20;99.90;;;;;;5019799;28;20048;-92
2022/07/24 04:34:22;;;;;;;6.80;6.10;;;15.20;99.90;;;;;;4988665;28;20114;-92
2022/07/24 04:36:48;;;;;;;7.03;5.50;;;15.20;99.90;;;;;;5034920;28;20495;-93
2022/07/24 04:39:14;;;;;;;7.55;5.70;;;15.20;99.90;;;;;;5010264;28;20059;-92
2022/07/24 04:41:40;;;;;;;6.78;5.22;;;15.20;99.90;;;;;;5023309;28;20419;-93
2022/07/24 04:44:06;;;;;;;6.65;5.60;;;15.30;99.90;;;;;;4999784;28;20054;-92
2022/07/24 04:46:32;;;;;;;5.93;5.30;;;15.30;99.90;;;;;;5011486;28;20170;-92
2022/07/24 04:48:57;;;;;;;6.47;5.75;;;15.30;99.90;;;;;;5040529;28;20044;-93
2022/07/24 04:51:23;;;;;;;9.70;6.25;;;15.30;99.90;;;;;;4997828;28;20622;-93
2022/07/24 04:53:52;;;;;;;7.13;6.20;;;15.30;99.90;;;;;;5019604;28;20172;-92
2022/07/24 04:56:19;;;;;;;7.82;5.75;;;15.30;99.90;;;;;;5001481;28;20076;-93
2022/07/24 04:58:44;;;;;;;8.15;5.65;;;15.30;99.90;;;;;;5011854;28;20099;-92
2022/07/24 05:01:10;;;;;;;7.93;5.75;;;15.40;99.90;;;;;;5001462;28;20483;-93
2022/07/24 05:03:36;;;;;;;7.40;6.00;;;15.40;99.90;;;;;;4981182;28;20046;-92
2022/07/24 05:06:02;;;;;;;6.30;5.70;;;15.40;99.90;;;;;;5019443;28;20037;-93
2022/07/24 05:08:27;;;;;;;9.38;6.18;;;15.40;99.90;;;;;;5004236;28;20039;-93
2022/07/24 05:10:53;;;;;;;8.38;5.97;;;15.50;99.90;;;;;;5003826;28;20030;-93
2022/07/24 05:13:19;;;;;;;6.80;5.57;;;15.50;99.90;;;;;;4995911;28;20064;-93
2022/07/24 05:15:44;;;;;;;10.27;6.28;;;15.50;99.90;;;;;;5013725;28;20049;-92
2022/07/24 05:18:10;;;;;;;8.75;6.05;;;15.60;99.90;;;;;;5011425;28;20046;-93
2022/07/24 05:20:36;;;;;;;6.68;5.38;;;15.60;99.90;;;;;;5020009;28;20452;-92
2022/07/24 05:23:02;;;;;;;7.70;5.60;;;15.60;99.90;;;;;;4994069;28;20041;-93
2022/07/24 05:25:27;;;;;;;8.75;5.75;;;15.70;99.90;;;;;;5002647;28;20054;-92
2022/07/24 05:27:53;;;;;;;7.70;6.63;;;15.70;99.90;;;;;;4983849;28;20045;-93
2022/07/24 05:30:19;;;;;;;7.13;6.05;;;15.80;99.90;;;;;;5005301;28;20068;-93
2022/07/24 05:32:44;;;;;;;8.77;6.22;;;15.90;99.90;;;;;;5012656;28;20037;-92
2022/07/24 05:35:10;;;;;;;8.68;6.75;;;15.90;99.90;;;;;;4998504;28;20075;-93
2022/07/24 05:37:36;;;;;;;9.63;6.55;;;16.00;99.90;;;;;;5026796;28;20030;-93
2022/07/24 05:40:03;;;;;;;7.45;6.75;;;16.00;99.90;;;;;;5013363;28;20456;-91
2022/07/24 05:42:28;;;;;;;10.23;6.72;;;16.10;99.90;;;;;;5011903;28;20042;-92
2022/07/24 05:44:54;;;;;;;9.25;6.95;;;16.20;99.90;;;;;;5000477;28;20038;-92
2022/07/24 05:47:20;;;;;;;9.18;7.07;;;16.20;99.90;;;;;;4996230;28;20041;-93
2022/07/24 05:49:45;;;;;;;11.35;7.35;;;16.20;99.90;;;;;;4999996;28;20034;-92
2022/07/24 05:52:11;;;;;;;7.85;6.65;;;16.30;99.90;;;;;;5034647;28;20454;-93
2022/07/24 05:54:37;;;;;;;8.18;7.13;;;16.30;99.90;;;;;;5004490;28;20041;-93
2022/07/24 05:57:03;;;;;;;9.23;6.80;;;16.40;99.90;;;;;;5019300;28;20073;-93
2022/07/24 05:59:29;;;;;;;9.38;7.18;;;16.40;99.90;;;;;;5018292;28;20950;-93
2022/07/24 06:01:54;;;;;;;8.73;7.20;;;16.50;99.90;;;;;;4993217;28;20116;-93
2022/07/24 06:04:20;;;;;;;8.32;7.05;;;16.60;99.90;;;;;;5017190;28;20400;-93
2022/07/24 06:06:46;;;;;;;11.45;8.63;;;16.60;99.90;;;;;;5029549;28;20042;-94
2022/07/24 06:09:12;;;;;;;9.07;7.47;;;16.70;99.90;;;;;;5015266;28;20129;-93
2022/07/24 06:11:37;;;;;;;9.43;8.07;;;16.80;99.90;;;;;;4998557;28;20029;-94
2022/07/24 06:14:04;;;;;;;9.90;7.90;;;16.90;99.90;;;;;;5010671;28;20558;-93
2022/07/24 06:16:29;;;;;;;12.50;7.65;;;17.00;99.90;;;;;;5031869;28;20046;-94
2022/07/24 06:18:55;;;;;;;12.55;7.30;;;17.10;99.90;;;;;;4995878;28;20381;-93
2022/07/24 06:21:21;;;;;;;9.50;8.05;;;17.20;99.90;;;;;;5018507;28;20068;-94
2022/07/24 06:23:46;;;;;;;10.85;8.63;;;17.20;99.90;;;;;;5014384;28;20037;-95
2022/07/24 06:26:12;;;;;;;10.75;7.88;;;17.30;99.90;;;;;;5006236;28;20522;-94
2022/07/24 06:28:38;;;;;;;9.85;8.82;;;17.50;99.90;;;;;;5020460;28;20045;-94
2022/07/24 06:31:04;;;;;;;10.48;8.15;;;17.60;99.90;;;;;;4999011;28;20095;-94
2022/07/24 06:33:29;;;;;;;9.80;8.80;;;17.70;99.90;;;;;;4998276;28;20124;-92
2022/07/24 06:35:55;;;;;;;10.73;8.88;;;17.80;99.90;;;;;;5003433;28;20184;-94
2022/07/24 06:38:21;;;;;;;10.95;9.25;;;17.90;99.90;;;;;;5016408;28;20041;-93
2022/07/24 06:40:47;;;;;;;9.93;8.63;;;18.00;99.90;;;;;;5014928;28;20037;-93
2022/07/24 06:43:12;;;;;;;10.07;8.43;;;18.20;99.90;;;;;;5011032;28;20061;-94
2022/07/24 06:45:38;;;;;;;11.00;8.80;;;18.30;99.90;;;;;;5012939;28;20125;-93
2022/07/24 06:48:04;;;;;;;12.68;8.32;;;18.40;99.90;;;;;;5001178;28;20030;-93
2022/07/24 06:50:30;;;;;;;12.98;9.48;;;18.50;99.90;;;;;;4984459;28;20045;-93
2022/07/24 06:52:56;;;;;;;11.85;8.77;;;18.70;99.90;;;;;;5015573;28;20037;-93
2022/07/24 06:55:21;;;;;;;11.52;8.55;;;18.80;99.90;;;;;;5000106;28;20048;-93
2022/07/24 06:57:47;;;;;;;14.15;9.32;;;18.90;99.90;;;;;;4983229;28;20034;-94
2022/07/24 07:00:13;;;;;;;11.70;8.48;;;19.00;99.90;;;;;;4999546;28;20038;-93
2022/07/24 07:02:39;;;;;;;11.77;8.65;;;19.10;99.90;;;;;;5011558;28;20113;-92
2022/07/24 07:05:09;;;;;;;14.35;10.77;;;19.20;99.90;;;;;;5000143;28;20847;-92
2022/07/24 07:07:38;;;;;;;14.27;10.02;;;19.40;99.90;;;;;;5018099;28;20515;-93
2022/07/24 07:10:05;;;;;;;14.40;11.52;;;19.50;99.90;;;;;;4996837;28;20116;-93
2022/07/24 07:12:31;;;;;;;12.60;9.45;;;19.60;99.90;;;;;;5013483;28;20063;-92
2022/07/24 07:14:59;;;;;;;14.45;10.93;;;19.80;99.90;;;;;;5021452;28;20491;-93
2022/07/24 07:17:25;;;;;;;15.95;12.02;;;19.80;99.90;;;;;;5007157;28;20049;-92
2022/07/24 07:19:51;;;;;;;16.23;11.20;;;19.90;99.90;;;;;;5040407;28;20087;-94
2022/07/24 07:22:16;;;;;;;14.52;11.65;;;20.10;99.90;;;;;;4985973;28;20492;-94
2022/07/24 07:24:42;;;;;;;16.13;12.30;;;20.20;99.90;;;;;;5008358;28;20486;-94
2022/07/24 07:27:08;;;;;;;17.17;11.95;;;20.30;99.90;;;;;;4984032;28;20041;-93
2022/07/24 07:29:34;;;;;;;15.77;10.73;;;20.40;99.90;;;;;;5026497;28;20047;-94
2022/07/24 07:31:59;;;;;;;15.07;11.48;;;20.50;99.90;;;;;;5049038;28;20038;-92
2022/07/24 07:34:26;;;;;;;16.63;12.10;;;20.70;99.90;;;;;;5035531;28;20048;-92
2022/07/24 07:36:52;;;;;;;16.15;12.75;;;20.90;99.90;;;;;;5015730;28;20069;-94
2022/07/24 07:39:18;;;;;;;14.70;12.52;;;21.00;99.90;;;;;;5024946;28;20025;-93
2022/07/24 07:41:43;;;;;;;19.27;12.02;;;21.10;99.90;;;;;;5030933;28;20036;-94
2022/07/24 07:44:09;;;;;;;16.88;12.88;;;21.20;99.90;;;;;;4994632;28;20096;-94
2022/07/24 07:46:35;;;;;;;17.67;12.80;;;21.20;99.90;;;;;;5044136;28;20425;-94
2022/07/24 07:49:01;;;;;;;17.27;13.15;;;21.40;99.90;;;;;;5004926;28;20034;-94
2022/07/24 07:51:26;;;;;;;17.55;13.52;;;21.50;99.90;;;;;;5022018;28;20562;-94
2022/07/24 07:53:52;;;;;;;18.00;12.05;;;21.60;99.90;;;;;;4990930;28;20041;-94
2022/07/24 07:56:18;;;;;;;18.13;12.18;;;21.70;99.90;;;;;;4988871;28;20045;-94
2022/07/24 07:58:43;;;;;;;16.95;13.07;;;21.80;99.90;;;;;;5002462;28;20073;-94
2022/07/24 08:01:09;;;;;;;14.40;11.75;;;21.90;99.90;;;;;;4986191;28;20048;-94
2022/07/24 08:03:35;;;;;;;22.75;13.68;;;22.00;99.90;;;;;;4984342;28;20034;-94
2022/07/24 08:06:01;;;;;;;15.13;11.80;;;22.00;99.90;;;;;;5009422;28;20490;-94
2022/07/24 08:08:26;;;;;;;15.52;11.65;;;22.10;99.90;;;;;;4985804;28;20041;-94
2022/07/24 08:10:53;;;;;;;18.80;13.30;;;22.20;99.90;;;;;;4990129;28;20466;-86
2022/07/24 08:13:19;;;;;;;16.02;12.27;;;22.20;99.90;;;;;;5000567;28;20037;-86
2022/07/24 08:15:45;;;;;;;19.38;12.73;;;22.30;99.90;;;;;;5015102;28;20491;-86
2022/07/24 08:18:11;;;;;;;15.30;13.05;;;22.30;99.90;;;;;;4998318;28;20056;-85
2022/07/24 08:20:37;;;;;;;16.40;12.52;;;22.40;99.90;;;;;;5015237;28;20398;-86
2022/07/24 08:23:02;;;;;;;16.80;13.02;;;22.50;99.90;;;;;;4993606;28;20504;-86
2022/07/24 08:25:28;;;;;;;16.35;14.05;;;22.60;99.90;;;;;;5018480;28;20565;-87
2022/07/24 08:27:54;;;;;;;20.17;12.23;;;22.70;99.90;;;;;;4992072;28;20045;-85
2022/07/24 08:30:21;;;;;;;17.20;12.07;;;22.90;99.90;;;;;;5027962;28;20038;-88
2022/07/24 08:32:47;;;;;;;14.95;12.57;;;23.00;99.90;;;;;;5006343;28;20038;-85
2022/07/24 08:35:14;;;;;;;18.70;11.98;;;23.20;99.90;;;;;;5016767;28;20048;-84
2022/07/24 08:37:41;;;;;;;16.20;12.43;;;23.30;99.90;;;;;;5000577;28;20049;-86
2022/07/24 08:40:09;;;;;;;15.18;11.70;;;23.40;99.90;;;;;;4999098;28;20497;-87
2022/07/24 08:42:35;;;;;;;12.80;10.52;;;23.40;99.90;;;;;;4981888;28;20687;-87
2022/07/24 08:45:02;;;;;;;16.02;10.77;;;23.40;99.90;;;;;;5002076;28;20067;-84
2022/07/24 08:47:29;;;;;;;14.32;9.18;;;23.50;99.90;;;;;;5020774;28;20034;-89
2022/07/24 08:49:57;;;;;;;11.88;8.75;;;23.60;99.90;;;;;;5012282;28;20034;-89
2022/07/24 08:52:23;;;;;;;17.15;10.40;;;23.50;99.90;;;;;;5020464;28;20614;-81
2022/07/24 08:54:49;;;;;;;12.82;9.27;;;23.60;99.90;;;;;;5005685;28;20100;-86
2022/07/24 08:57:15;;;;;;;10.32;7.55;;;23.70;99.90;;;;;;5011564;28;20046;-93
2022/07/24 08:59:41;;;;;;;11.10;6.28;;;23.70;99.90;;;;;;4994673;28;20038;-92
2022/07/24 09:02:07;;;;;;;7.72;5.50;;;23.90;99.90;;;;;;5004965;28;20037;-90
2022/07/24 09:04:46;;;;;;;7.63;5.43;;;24.00;99.50;;;;;;5002139;28;20038;-90
2022/07/24 09:07:18;;;;;;;7.53;5.47;;;24.10;99.40;;;;;;4997204;28;20031;-91
2022/07/24 09:09:56;;;;;;;7.47;5.65;;;24.10;98.50;;;;;;4997262;28;20130;-95
2022/07/24 09:12:22;;;;;;;9.32;5.97;;;24.30;99.20;;;;;;4999207;28;20050;-95
2022/07/24 09:14:48;;;;;;;7.70;5.07;;;24.40;99.40;;;;;;4983789;28;20037;-93
2022/07/24 09:17:19;;;;;;;6.32;5.13;;;24.40;98.40;;;;;;4994738;28;20324;-91
2022/07/24 09:19:57;;;;;;;6.43;5.15;;;24.50;98.40;;;;;;4993505;28;20048;-88
2022/07/24 09:22:36;;;;;;;6.30;4.43;;;24.60;98.10;;;;;;5009570;28;20042;-88
2022/07/24 09:25:18;;;;;;;5.82;3.92;;;24.70;97.60;;;;;;4995360;28;20044;-86
2022/07/24 09:28:02;;;;;;;5.07;4.15;;;24.70;97.50;;;;;;5012199;28;20077;-86
2022/07/24 09:30:39;;;;;;;6.20;3.92;;;24.60;97.20;;;;;;5023831;28;20450;-87
2022/07/24 09:33:15;;;;;;;6.05;4.30;;;24.60;97.90;;;;;;5029607;28;20041;-87
2022/07/24 09:35:47;;;;;;;6.00;4.50;;;24.60;98.00;;;;;;5001285;28;20052;-89
2022/07/24 09:38:18;;;;;;;6.50;4.85;;;24.70;98.10;;;;;;5027987;28;20037;-86
2022/07/24 09:40:51;;;;;;;8.35;4.13;;;24.80;97.70;;;;;;5010472;28;20041;-87
2022/07/24 09:43:28;;;;;;;5.38;3.92;;;24.80;97.60;;;;;;5018810;28;20174;-90
2022/07/24 09:46:07;;;;;;;5.40;4.00;;;24.80;97.90;;;;;;5023953;28;20039;-87
2022/07/24 09:48:34;;;;;;;7.15;3.60;;;24.90;97.10;;;;;;5033456;28;20042;-90
2022/07/24 09:51:12;;;;;;;5.18;4.00;;;24.90;97.90;;;;;;5018183;28;20032;-92
2022/07/24 09:53:39;;;;;;;4.90;3.50;;;25.00;97.30;;;;;;5012820;28;20049;-96
2022/07/24 09:56:13;;;;;;;4.68;3.58;;;25.00;96.80;;;;;;5022035;23;20504;-74
2022/07/24 09:58:47;;;;;;;5.53;3.13;;;25.00;97.40;;;;;;5012341;28;20049;-74
2022/07/24 10:01:16;;;;;;;4.13;3.22;;;25.10;97.60;;;;;;5000707;28;20115;-74
2022/07/24 10:03:44;;;;;;;5.28;2.92;;;25.20;97.00;;;;;;5019871;28;20037;-73
2022/07/24 10:06:13;;;;;;;3.75;3.33;;;25.20;96.80;;;;;;4986087;28;20041;-74
2022/07/24 10:08:42;;;;;;;4.00;3.53;;;25.40;96.80;;;;;;4985311;28;20034;-73
2022/07/24 10:11:08;;;;;;;4.88;3.58;;;25.50;96.40;;;;;;5000576;28;20037;-75
2022/07/24 10:13:35;;;;;;;4.40;3.30;;;25.60;96.20;;;;;;4984508;28;20442;-75
2022/07/24 10:16:13;;;;;;;4.57;3.17;;;25.60;95.80;;;;;;4982993;28;20375;-75
2022/07/24 10:18:56;;;;;;;4.50;3.10;;;25.80;94.90;;;;;;5017201;28;21556;-74
2022/07/24 10:21:24;;;;;;;3.60;3.00;;;25.90;95.80;;;;;;4998079;28;20050;-73
2022/07/24 10:24:20;;;;;;;4.40;3.15;;;26.00;95.60;;;;;;5013968;28;20068;-74
2022/07/24 10:26:58;;;;;;;4.50;3.00;;;26.10;95.50;;;;;;4997520;28;20033;-71
2022/07/24 10:29:24;;;;;;;3.92;2.80;;;26.20;95.10;;;;;;4994544;28;20045;-73
2022/07/24 10:31:56;;;;;;;2.90;2.60;;;26.20;93.80;;;;;;4991543;28;20487;-73
2022/07/24 10:34:46;;;;;;;6.53;2.90;;;26.30;94.10;;;;;;4976078;28;20053;-73
2022/07/24 10:37:42;;;;;;;4.63;2.85;;;26.30;93.30;;;;;;5011583;28;20036;-73
2022/07/24 10:40:14;;;;;;;3.13;2.75;;;26.40;93.80;;;;;;5001509;28;20121;-73
2022/07/24 10:43:05;;;;;;;4.55;2.90;;;26.60;94.00;;;;;;4996575;28;20064;-73
2022/07/24 10:45:33;;;;;;;4.85;2.90;;;26.80;92.80;;;;;;5009756;28;20057;-73
2022/07/24 10:48:19;;;;;;;3.40;2.70;;;26.90;93.60;;;;;;5007664;28;20040;-73
2022/07/24 10:50:57;;;;;;;2.97;2.67;;;26.90;93.20;;;;;;4997982;28;20121;-73
2022/07/24 10:53:50;;;;;;;3.05;2.42;;;27.10;93.50;;;;;;4995792;28;20037;-72
2022/07/24 10:56:41;;;;;;;2.90;2.30;;;27.20;92.70;;;;;;5000583;28;20041;-73
2022/07/24 10:59:09;;;;;;;2.47;2.28;;;27.30;93.50;;;;;;4995415;28;20053;-71
2022/07/24 11:01:38;;;;;;;2.80;2.30;;;27.30;93.10;;;;;;5007412;28;20037;-74
2022/07/24 11:04:19;;;;;;;2.60;2.35;;;27.20;92.10;;;;;;4999015;28;20046;-72
2022/07/24 11:06:46;;;;;;;2.67;2.22;;;27.30;91.60;;;;;;5022218;28;20066;-74
2022/07/24 11:09:14;;;;;;;3.05;2.45;;;27.30;91.80;;;;;;4998485;28;20042;-74
2022/07/24 11:11:42;;;;;;;2.50;2.25;;;27.40;92.30;;;;;;5013287;28;20042;-72
2022/07/24 11:14:09;;;;;;;2.33;2.13;;;27.50;92.20;;;;;;5001508;28;20037;-73
2022/07/24 11:16:35;;;;;;;3.78;2.40;;;27.40;91.70;;;;;;5003945;28;20120;-72
2022/07/24 11:19:01;;;;;;;2.30;2.10;;;27.50;91.70;;;;;;5003044;28;20124;-72
2022/07/24 11:21:33;;;;;;;3.60;2.47;;;27.40;92.00;;;;;;5005427;28;20124;-73
2022/07/24 11:24:23;;;;;;;2.90;2.20;;;27.30;91.30;;;;;;4999899;28;20109;-74
2022/07/24 11:26:53;;;;;;;2.65;2.40;;;27.30;91.00;;;;;;4994182;28;20042;-73
2022/07/24 11:29:39;;;;;;;2.83;2.42;;;27.30;91.60;;;;;;5002215;28;20042;-74
2022/07/24 11:32:07;;;;;;;2.85;2.40;;;27.40;91.90;;;;;;4999900;28;20132;-73
2022/07/24 11:34:35;;;;;;;3.03;2.65;;;27.40;91.80;;;;;;5013487;28;20041;-74
2022/07/24 11:37:03;;;;;;;5.80;2.38;;;27.20;91.70;;;;;;4992945;28;20092;-73
2022/07/24 11:39:32;;;;;;;3.15;2.33;;;27.00;91.20;;;;;;4992995;28;20030;-75
2022/07/24 11:42:06;;;;;;;3.85;2.72;;;27.20;92.00;;;;;;5002103;28;20445;-73
2022/07/24 11:44:41;;;;;;;3.45;2.50;;;27.40;92.40;;;;;;5005478;28;20036;-76
2022/07/24 11:47:15;;;;;;;2.63;2.40;;;27.60;92.10;;;;;;5012592;28;21362;-74
2022/07/24 11:49:45;;;;;;;2.80;2.55;;;27.80;91.60;;;;;;5021564;28;20096;-73
2022/07/24 11:52:25;;;;;;;3.67;2.72;;;27.90;91.10;;;;;;5012620;28;20424;-74
2022/07/24 11:54:53;;;;;;;3.65;2.63;;;28.00;91.10;;;;;;5000180;28;20037;-75
2022/07/24 11:57:21;;;;;;;3.05;2.60;;;28.00;90.60;;;;;;4985734;28;20041;-77
2022/07/24 11:59:49;;;;;;;2.88;2.60;;;28.00;90.50;;;;;;5023058;28;20044;-77
2022/07/24 12:02:16;;;;;;;2.83;2.53;;;28.10;90.50;;;;;;5007158;28;20030;-75
2022/07/24 12:04:42;;;;;;;2.70;2.42;;;28.20;90.80;;;;;;5008220;28;20037;-75
2022/07/24 12:07:11;;;;;;;3.35;2.70;;;28.20;90.50;;;;;;4987000;28;20433;-75
2022/07/24 12:09:45;;;;;;;2.95;2.65;;;28.30;90.20;;;;;;5011197;28;20045;-76
2022/07/24 12:12:31;;;;;;;4.65;2.60;;;28.40;90.00;;;;;;5010985;28;20040;-75
2022/07/24 12:15:08;;;;;;;3.85;2.70;;;28.40;88.20;;;;;;4983208;28;20537;-74
2022/07/24 12:18:12;;;;;;;4.03;2.53;;;28.40;88.70;;;;;;5000128;28;20592;-74
2022/07/24 12:20:40;;;;;;;3.42;2.50;;;28.40;89.00;;;;;;4927110;29;20263;-74
2022/07/24 12:23:09;;;;;;;3.22;2.67;;;28.40;89.40;;;;;;4934281;28;20039;-75
2022/07/24 12:25:35;;;;;;;3.03;2.72;;;28.40;88.10;;;;;;4979640;28;20458;-73
2022/07/24 12:28:21;;;;;;;3.15;2.70;;;28.50;87.70;;;;;;4999367;28;20060;-73
2022/07/24 12:30:52;;;;;;;2.75;2.45;;;28.50;86.70;;;;;;4996320;28;20042;-72
2022/07/24 12:33:17;;;;;;;5.28;2.95;;;28.50;86.90;;;;;;4992660;28;20053;-72
2022/07/24 12:36:00;;;;;;;3.55;2.85;;;28.60;87.30;;;;;;4994757;28;20177;-72
2022/07/24 12:38:49;;;;;;;3.20;2.88;;;28.70;85.90;;;;;;4995044;28;20398;-72
2022/07/24 12:41:16;;;;;;;2.85;2.55;;;28.60;85.30;;;;;;4988179;28;20519;-72
2022/07/24 12:44:03;;;;;;;2.70;2.50;;;28.60;86.30;;;;;;5015696;28;20088;-73
2022/07/24 12:46:33;;;;;;;4.28;3.25;;;28.60;86.20;;;;;;4995972;28;20057;-73
2022/07/24 12:49:13;;;;;;;3.30;2.97;;;28.60;84.60;;;;;;4997625;28;20045;-72